sensor_id;sensor_type;location;lat;lon;timestamp;temperature;humidity
20839;DHT22;10580;51.092;6.828;2022-10-04T00:01:31;10.30;99.90
20839;DHT22;10580;51.092;6.828;2022-10-04T00:04:08;10.30;99.90
20839;DHT22;10580;51.092;6.828;2022-10-04T00:06:36;10.40;99.90
20839;DHT22;10580;51.092;6.828;2022-10-04T00:09:12;10.30;99.90
20839;DHT22;10580;51.092;6.828;2022-10-04T00:11:43;10.30;99.90
20839;DHT22;10580;51.092;6.828;2022-10-04T00:14:27;10.30;99.90
20839;DHT22;10580;51.092;6.828;2022-10-04T00:16:55;10.30;99.90
20839;DHT22;10580;51.092;6.828;2022-10-04T00:19:45;10.30;99.90
20839;DHT22;10580;51.092;6.828;2022-10-04T00:22:14;10.30;99.90
20839;DHT22;10580;51.092;6.828;2022-10-04T00:25:12;10.30;99.90
20839;DHT22;10580;51.092;6.828;2022-10-04T00:27:39;10.30;99.90
20839;DHT22;10580;51.092;6.828;2022-10-04T00:30:35;10.40;99.90
20839;DHT22;10580;51.092;6.828;2022-10-04T00:33:02;10.30;99.90
20839;DHT22;10580;51.092;6.828;2022-10-04T00:40:27;10.40;99.90
20839;DHT22;10580;51.092;6.828;2022-10-04T00:43:00;10.30;99.90
20839;DHT22;10580;51.092;6.828;2022-10-04T00:45:36;10.30;99.90
20839;DHT22;10580;51.092;6.828;2022-10-04T00:50:57;10.30;99.90
20839;DHT22;10580;51.092;6.828;2022-10-04T00:56:09;10.30;99.90
20839;DHT22;10580;51.092;6.828;2022-10-04T01:01:34;10.30;99.90
20839;DHT22;10580;51.092;6.828;2022-10-04T01:04:01;10.30;99.90
20839;DHT22;10580;51.092;6.828;2022-10-04T01:06:28;10.30;99.90
20839;DHT22;10580;51.092;6.828;2022-10-04T01:08:59;10.30;99.90
20839;DHT22;10580;51.092;6.828;2022-10-04T01:11:35;10.20;99.90
20839;DHT22;10580;51.092;6.828;2022-10-04T01:14:04;10.30;99.90
20839;DHT22;10580;51.092;6.828;2022-10-04T01:16:34;10.20;99.90
20839;DHT22;10580;51.092;6.828;2022-10-04T01:22:10;10.20;99.90
20839;DHT22;10580;51.092;6.828;2022-10-04T01:24:41;10.20;99.90
20839;DHT22;10580;51.092;6.828;2022-10-04T01:27:33;10.20;99.90
20839;DHT22;10580;51.092;6.828;2022-10-04T01:30:01;10.20;99.90
20839;DHT22;10580;51.092;6.828;2022-10-04T01:32:27;10.20;99.90
20839;DHT22;10580;51.092;6.828;2022-10-04T01:34:55;10.10;99.90
20839;DHT22;10580;51.092;6.828;2022-10-04T01:37:22;10.10;99.90
20839;DHT22;10580;51.092;6.828;2022-10-04T01:39:47;10.20;99.90
20839;DHT22;10580;51.092;6.828;2022-10-04T01:42:28;10.20;99.90
20839;DHT22;10580;51.092;6.828;2022-10-04T01:45:10;10.20;99.90
20839;DHT22;10580;51.092;6.828;2022-10-04T01:48:02;10.20;99.90
20839;DHT22;10580;51.092;6.828;2022-10-04T01:50:42;10.10;99.90
20839;DHT22;10580;51.092;6.828;2022-10-04T01:53:11;10.20;99.90
20839;DHT22;10580;51.092;6.828;2022-10-04T01:55:40;10.20;99.90
20839;DHT22;10580;51.092;6.828;2022-10-04T01:58:13;10.10;99.90
20839;DHT22;10580;51.092;6.828;2022-10-04T02:00:47;10.10;99.90
20839;DHT22;10580;51.092;6.828;2022-10-04T02:03:47;10.10;99.90
20839;DHT22;10580;51.092;6.828;2022-10-04T02:06:17;10.10;99.90
20839;DHT22;10580;51.092;6.828;2022-10-04T02:08:48;10.20;99.90
20839;DHT22;10580;51.092;6.828;2022-10-04T02:11:19;10.20;99.90
20839;DHT22;10580;51.092;6.828;2022-10-04T02:13:50;10.10;99.90
20839;DHT22;10580;51.092;6.828;2022-10-04T02:16:17;10.10;99.90
20839;DHT22;10580;51.092;6.828;2022-10-04T02:18:44;10.00;99.90
20839;DHT22;10580;51.092;6.828;2022-10-04T02:21:12;10.00;99.90
20839;DHT22;10580;51.092;6.828;2022-10-04T02:23:39;10.00;99.90
20839;DHT22;10580;51.092;6.828;2022-10-04T02:26:07;10.00;99.90
20839;DHT22;10580;51.092;6.828;2022-10-04T02:28:34;10.00;99.90
20839;DHT22;10580;51.092;6.828;2022-10-04T02:31:01;9.90;99.90
20839;DHT22;10580;51.092;6.828;2022-10-04T02:33:48;9.90;99.90
20839;DHT22;10580;51.092;6.828;2022-10-04T02:36:15;9.90;99.90
20839;DHT22;10580;51.092;6.828;2022-10-04T02:38:46;9.90;99.90
20839;DHT22;10580;51.092;6.828;2022-10-04T02:41:22;9.90;99.90
20839;DHT22;10580;51.092;6.828;2022-10-04T02:46:40;9.90;99.90
20839;DHT22;10580;51.092;6.828;2022-10-04T02:49:27;9.90;99.90
20839;DHT22;10580;51.092;6.828;2022-10-04T02:52:10;9.90;99.90
20839;DHT22;10580;51.092;6.828;2022-10-04T02:57:22;10.00;99.90
20839;DHT22;10580;51.092;6.828;2022-10-04T02:59:48;10.00;99.90
20839;DHT22;10580;51.092;6.828;2022-10-04T03:02:26;10.10;99.90
20839;DHT22;10580;51.092;6.828;2022-10-04T03:04:54;10.10;99.90
20839;DHT22;10580;51.092;6.828;2022-10-04T03:07:21;10.10;99.90
20839;DHT22;10580;51.092;6.828;2022-10-04T03:09:48;10.10;99.90
20839;DHT22;10580;51.092;6.828;2022-10-04T03:12:14;10.10;99.90
20839;DHT22;10580;51.092;6.828;2022-10-04T03:14:40;10.10;99.90
20839;DHT22;10580;51.092;6.828;2022-10-04T03:17:06;10.10;99.90
20839;DHT22;10580;51.092;6.828;2022-10-04T03:19:33;10.10;99.90
20839;DHT22;10580;51.092;6.828;2022-10-04T03:22:08;10.00;99.90
20839;DHT22;10580;51.092;6.828;2022-10-04T03:24:38;10.00;99.90
20839;DHT22;10580;51.092;6.828;2022-10-04T03:27:08;10.00;99.90
20839;DHT22;10580;51.092;6.828;2022-10-04T03:29:40;10.00;99.90
20839;DHT22;10580;51.092;6.828;2022-10-04T03:32:09;10.00;99.90
20839;DHT22;10580;51.092;6.828;2022-10-04T03:34:38;10.00;99.90
20839;DHT22;10580;51.092;6.828;2022-10-04T03:37:13;10.00;99.90
20839;DHT22;10580;51.092;6.828;2022-10-04T03:39:44;10.00;99.90
20839;DHT22;10580;51.092;6.828;2022-10-04T03:42:26;10.00;99.90
20839;DHT22;10580;51.092;6.828;2022-10-04T03:44:56;9.90;99.90
20839;DHT22;10580;51.092;6.828;2022-10-04T03:47:29;9.90;99.90
20839;DHT22;10580;51.092;6.828;2022-10-04T03:50:00;9.80;99.90
20839;DHT22;10580;51.092;6.828;2022-10-04T03:52:31;9.70;99.90
20839;DHT22;10580;51.092;6.828;2022-10-04T03:55:02;9.70;99.90
20839;DHT22;10580;51.092;6.828;2022-10-04T03:57:30;9.60;99.90
20839;DHT22;10580;51.092;6.828;2022-10-04T03:59:56;9.60;99.90
20839;DHT22;10580;51.092;6.828;2022-10-04T04:02:33;9.50;99.90
20839;DHT22;10580;51.092;6.828;2022-10-04T04:05:22;9.50;99.90
20839;DHT22;10580;51.092;6.828;2022-10-04T04:08:04;9.40;99.90
20839;DHT22;10580;51.092;6.828;2022-10-04T04:10:36;9.40;99.90
20839;DHT22;10580;51.092;6.828;2022-10-04T04:15:47;9.40;99.90
20839;DHT22;10580;51.092;6.828;2022-10-04T04:18:19;9.40;99.90
20839;DHT22;10580;51.092;6.828;2022-10-04T04:20:49;9.40;99.90
20839;DHT22;10580;51.092;6.828;2022-10-04T04:26:45;9.30;99.90
20839;DHT22;10580;51.092;6.828;2022-10-04T04:28:50;9.30;99.90
20839;DHT22;10580;51.092;6.828;2022-10-04T04:31:34;9.30;99.90
20839;DHT22;10580;51.092;6.828;2022-10-04T04:34:15;9.30;99.90
20839;DHT22;10580;51.092;6.828;2022-10-04T04:36:41;9.30;99.90
20839;DHT22;10580;51.092;6.828;2022-10-04T04:39:14;9.30;99.90
20839;DHT22;10580;51.092;6.828;2022-10-04T04:42:40;9.30;99.90
20839;DHT22;10580;51.092;6.828;2022-10-04T04:44:54;9.30;99.90
20839;DHT22;10580;51.092;6.828;2022-10-04T04:50:16;9.40;99.90
20839;DHT22;10580;51.092;6.828;2022-10-04T04:52:47;9.40;99.90
20839;DHT22;10580;51.092;6.828;2022-10-04T04:55:20;9.40;99.90
20839;DHT22;10580;51.092;6.828;2022-10-04T04:57:48;9.40;99.90
20839;DHT22;10580;51.092;6.828;2022-10-04T05:00:17;9.40;99.90
20839;DHT22;10580;51.092;6.828;2022-10-04T05:02:52;9.30;99.90
20839;DHT22;10580;51.092;6.828;2022-10-04T05:05:26;9.30;99.90
20839;DHT22;10580;51.092;6.828;2022-10-04T05:13:19;9.20;99.90
20839;DHT22;10580;51.092;6.828;2022-10-04T05:15:49;9.20;99.90
20839;DHT22;10580;51.092;6.828;2022-10-04T05:18:30;9.20;99.90
20839;DHT22;10580;51.092;6.828;2022-10-04T05:21:12;9.20;99.90
20839;DHT22;10580;51.092;6.828;2022-10-04T05:23:38;9.10;99.90
20839;DHT22;10580;51.092;6.828;2022-10-04T05:26:09;9.10;99.90
20839;DHT22;10580;51.092;6.828;2022-10-04T05:28:35;9.10;99.90
20839;DHT22;10580;51.092;6.828;2022-10-04T05:39:00;9.10;99.90
20839;DHT22;10580;51.092;6.828;2022-10-04T05:41:37;9.10;99.90
20839;DHT22;10580;51.092;6.828;2022-10-04T05:44:29;9.10;99.90
20839;DHT22;10580;51.092;6.828;2022-10-04T05:47:00;9.10;99.90
20839;DHT22;10580;51.092;6.828;2022-10-04T05:49:32;9.10;99.90
20839;DHT22;10580;51.092;6.828;2022-10-04T05:52:02;9.10;99.90
20839;DHT22;10580;51.092;6.828;2022-10-04T05:54:30;9.10;99.90
20839;DHT22;10580;51.092;6.828;2022-10-04T05:57:24;9.10;99.90
20839;DHT22;10580;51.092;6.828;2022-10-04T06:02:32;9.10;99.90
20839;DHT22;10580;51.092;6.828;2022-10-04T06:05:19;9.10;99.90
20839;DHT22;10580;51.092;6.828;2022-10-04T06:07:56;9.10;99.90
20839;DHT22;10580;51.092;6.828;2022-10-04T06:13:47;9.20;99.90
20839;DHT22;10580;51.092;6.828;2022-10-04T06:22:20;9.30;99.90
20839;DHT22;10580;51.092;6.828;2022-10-04T06:25:03;9.40;99.90
20839;DHT22;10580;51.092;6.828;2022-10-04T06:27:51;9.40;99.90
20839;DHT22;10580;51.092;6.828;2022-10-04T06:30:20;9.50;99.90
20839;DHT22;10580;51.092;6.828;2022-10-04T06:33:12;9.70;99.90
20839;DHT22;10580;51.092;6.828;2022-10-04T06:36:03;9.80;99.90
20839;DHT22;10580;51.092;6.828;2022-10-04T06:38:49;9.90;99.90
20839;DHT22;10580;51.092;6.828;2022-10-04T06:41:29;10.00;99.90
20839;DHT22;10580;51.092;6.828;2022-10-04T06:46:49;10.30;99.90
20839;DHT22;10580;51.092;6.828;2022-10-04T06:58:01;10.60;99.90
20839;DHT22;10580;51.092;6.828;2022-10-04T07:00:39;10.80;99.90
20839;DHT22;10580;51.092;6.828;2022-10-04T07:03:16;10.90;99.90
20839;DHT22;10580;51.092;6.828;2022-10-04T07:05:53;11.00;99.90
20839;DHT22;10580;51.092;6.828;2022-10-04T07:08:44;11.20;99.90
20839;DHT22;10580;51.092;6.828;2022-10-04T07:13:52;11.50;99.90
20839;DHT22;10580;51.092;6.828;2022-10-04T07:19:44;12.00;99.90
20839;DHT22;10580;51.092;6.828;2022-10-04T07:22:15;12.10;99.90
20839;DHT22;10580;51.092;6.828;2022-10-04T07:24:47;12.10;99.90
20839;DHT22;10580;51.092;6.828;2022-10-04T07:30:05;12.00;99.90
20839;DHT22;10580;51.092;6.828;2022-10-04T07:32:34;12.10;99.90
20839;DHT22;10580;51.092;6.828;2022-10-04T07:37:51;12.00;99.90
20839;DHT22;10580;51.092;6.828;2022-10-04T07:40:20;12.10;99.90
20839;DHT22;10580;51.092;6.828;2022-10-04T07:42:53;12.10;99.90
20839;DHT22;10580;51.092;6.828;2022-10-04T07:45:38;12.10;99.90
20839;DHT22;10580;51.092;6.828;2022-10-04T07:48:19;12.10;99.90
20839;DHT22;10580;51.092;6.828;2022-10-04T07:51:04;12.00;99.90
20839;DHT22;10580;51.092;6.828;2022-10-04T07:53:45;12.00;99.90
20839;DHT22;10580;51.092;6.828;2022-10-04T07:56:25;12.10;99.90
20839;DHT22;10580;51.092;6.828;2022-10-04T08:01:47;12.10;99.90
20839;DHT22;10580;51.092;6.828;2022-10-04T08:04:39;12.20;99.90
20839;DHT22;10580;51.092;6.828;2022-10-04T08:07:14;12.20;99.90
20839;DHT22;10580;51.092;6.828;2022-10-04T08:10:16;12.30;99.90
20839;DHT22;10580;51.092;6.828;2022-10-04T08:20:57;12.70;99.90
20839;DHT22;10580;51.092;6.828;2022-10-04T08:35:28;14.30;99.90
20839;DHT22;10580;51.092;6.828;2022-10-04T08:55:19;18.80;1.00
20839;DHT22;10580;51.092;6.828;2022-10-04T09:09:51;16.80;2.60
20839;DHT22;10580;51.092;6.828;2022-10-04T09:15:34;16.30;21.00
20839;DHT22;10580;51.092;6.828;2022-10-04T09:28:44;21.00;1.00
20839;DHT22;10580;51.092;6.828;2022-10-04T09:39:54;18.30;1.00
20839;DHT22;10580;51.092;6.828;2022-10-04T09:45:25;17.30;1.00
20839;DHT22;10580;51.092;6.828;2022-10-04T10:04:51;18.00;1.00
20839;DHT22;10580;51.092;6.828;2022-10-04T10:07:54;18.00;1.00
20839;DHT22;10580;51.092;6.828;2022-10-04T10:17:18;18.80;1.00
20839;DHT22;10580;51.092;6.828;2022-10-04T10:22:23;20.50;1.00
20839;DHT22;10580;51.092;6.828;2022-10-04T10:25:38;21.10;1.00
20839;DHT22;10580;51.092;6.828;2022-10-04T10:42:30;18.00;1.00
20839;DHT22;10580;51.092;6.828;2022-10-04T10:48:22;17.50;1.00
20839;DHT22;10580;51.092;6.828;2022-10-04T10:54:39;17.60;1.00
20839;DHT22;10580;51.092;6.828;2022-10-04T11:00:05;17.20;1.00
20839;DHT22;10580;51.092;6.828;2022-10-04T11:03:00;17.00;1.00
20839;DHT22;10580;51.092;6.828;2022-10-04T11:28:04;16.50;1.00
20839;DHT22;10580;51.092;6.828;2022-10-04T11:31:00;16.60;1.00
20839;DHT22;10580;51.092;6.828;2022-10-04T11:36:31;18.00;1.00
20839;DHT22;10580;51.092;6.828;2022-10-04T11:42:20;20.50;1.00
20839;DHT22;10580;51.092;6.828;2022-10-04T11:55:47;21.90;1.00
20839;DHT22;10580;51.092;6.828;2022-10-04T12:29:15;20.10;1.00
20839;DHT22;10580;51.092;6.828;2022-10-04T12:32:03;20.00;1.00
20839;DHT22;10580;51.092;6.828;2022-10-04T12:37:15;20.60;99.90
20839;DHT22;10580;51.092;6.828;2022-10-04T12:45:37;21.60;99.90
20839;DHT22;10580;51.092;6.828;2022-10-04T12:53:32;22.30;1.00
20839;DHT22;10580;51.092;6.828;2022-10-04T12:56:20;22.00;1.00
20839;DHT22;10580;51.092;6.828;2022-10-04T13:10:50;22.40;1.00
20839;DHT22;10580;51.092;6.828;2022-10-04T13:24:06;21.90;1.00
20839;DHT22;10580;51.092;6.828;2022-10-04T13:32:12;21.90;99.90
20839;DHT22;10580;51.092;6.828;2022-10-04T13:35:02;22.10;64.30
20839;DHT22;10580;51.092;6.828;2022-10-04T13:43:53;21.80;95.30
20839;DHT22;10580;51.092;6.828;2022-10-04T13:46:33;21.60;1.00
20839;DHT22;10580;51.092;6.828;2022-10-04T13:49:35;21.50;1.00
20839;DHT22;10580;51.092;6.828;2022-10-04T13:58:27;21.50;1.00
20839;DHT22;10580;51.092;6.828;2022-10-04T14:09:39;21.60;1.00
20839;DHT22;10580;51.092;6.828;2022-10-04T14:18:14;21.50;1.00
20839;DHT22;10580;51.092;6.828;2022-10-04T14:21:10;21.50;99.90
20839;DHT22;10580;51.092;6.828;2022-10-04T14:24:00;21.50;1.00
20839;DHT22;10580;51.092;6.828;2022-10-04T14:35:16;21.60;99.90
20839;DHT22;10580;51.092;6.828;2022-10-04T14:55:09;21.00;99.90
20839;DHT22;10580;51.092;6.828;2022-10-04T15:00:20;20.90;1.00
20839;DHT22;10580;51.092;6.828;2022-10-04T15:02:48;20.90;1.00
20839;DHT22;10580;51.092;6.828;2022-10-04T15:05:31;20.90;99.90
20839;DHT22;10580;51.092;6.828;2022-10-04T15:10:53;20.70;99.90
20839;DHT22;10580;51.092;6.828;2022-10-04T15:18:43;20.50;1.00
20839;DHT22;10580;51.092;6.828;2022-10-04T15:23:59;20.50;1.00
20839;DHT22;10580;51.092;6.828;2022-10-04T15:26:48;20.40;1.00
20839;DHT22;10580;51.092;6.828;2022-10-04T15:29:34;20.40;1.00
20839;DHT22;10580;51.092;6.828;2022-10-04T15:37:33;20.30;1.00
20839;DHT22;10580;51.092;6.828;2022-10-04T15:40:20;20.20;1.00
20839;DHT22;10580;51.092;6.828;2022-10-04T15:56:55;19.70;1.00
20839;DHT22;10580;51.092;6.828;2022-10-04T15:59:52;19.60;1.00
20839;DHT22;10580;51.092;6.828;2022-10-04T16:02:30;19.50;1.00
20839;DHT22;10580;51.092;6.828;2022-10-04T16:10:26;19.20;1.00
20839;DHT22;10580;51.092;6.828;2022-10-04T16:21:51;18.70;1.00
20839;DHT22;10580;51.092;6.828;2022-10-04T16:32:12;18.20;25.80
20839;DHT22;10580;51.092;6.828;2022-10-04T16:47:58;17.50;53.40
20839;DHT22;10580;51.092;6.828;2022-10-04T16:56:20;17.00;93.80
20839;DHT22;10580;51.092;6.828;2022-10-04T16:58:56;16.90;99.90
20839;DHT22;10580;51.092;6.828;2022-10-04T17:17:41;15.90;99.90
20839;DHT22;10580;51.092;6.828;2022-10-04T17:20:20;15.80;99.90
20839;DHT22;10580;51.092;6.828;2022-10-04T17:25:38;15.60;99.90
20839;DHT22;10580;51.092;6.828;2022-10-04T17:28:29;15.50;99.90
20839;DHT22;10580;51.092;6.828;2022-10-04T17:39:15;15.10;99.90
20839;DHT22;10580;51.092;6.828;2022-10-04T17:44:59;14.90;99.90
20839;DHT22;10580;51.092;6.828;2022-10-04T17:53:48;14.60;99.90
20839;DHT22;10580;51.092;6.828;2022-10-04T17:56:45;14.50;99.90
20839;DHT22;10580;51.092;6.828;2022-10-04T17:59:18;14.40;99.90
20839;DHT22;10580;51.092;6.828;2022-10-04T18:01:53;14.40;99.90
20839;DHT22;10580;51.092;6.828;2022-10-04T18:04:25;14.30;99.90
20839;DHT22;10580;51.092;6.828;2022-10-04T18:07:19;14.20;99.90
20839;DHT22;10580;51.092;6.828;2022-10-04T18:09:54;14.10;99.90
20839;DHT22;10580;51.092;6.828;2022-10-04T18:12:37;14.10;99.90
20839;DHT22;10580;51.092;6.828;2022-10-04T18:15:06;14.00;99.90
20839;DHT22;10580;51.092;6.828;2022-10-04T18:17:40;14.00;99.90
20839;DHT22;10580;51.092;6.828;2022-10-04T18:20:17;14.00;99.90
20839;DHT22;10580;51.092;6.828;2022-10-04T18:22:54;13.90;99.90
20839;DHT22;10580;51.092;6.828;2022-10-04T18:25:22;13.90;99.90
20839;DHT22;10580;51.092;6.828;2022-10-04T18:30:52;13.70;99.90
20839;DHT22;10580;51.092;6.828;2022-10-04T18:33:48;13.60;99.90
20839;DHT22;10580;51.092;6.828;2022-10-04T18:36:20;13.50;99.90
20839;DHT22;10580;51.092;6.828;2022-10-04T18:41:41;13.30;99.90
20839;DHT22;10580;51.092;6.828;2022-10-04T18:44:20;13.30;99.90
20839;DHT22;10580;51.092;6.828;2022-10-04T18:46:46;13.20;99.90
20839;DHT22;10580;51.092;6.828;2022-10-04T18:49:46;13.10;99.90
20839;DHT22;10580;51.092;6.828;2022-10-04T18:52:25;13.10;99.90
20839;DHT22;10580;51.092;6.828;2022-10-04T18:57:45;13.10;99.90
20839;DHT22;10580;51.092;6.828;2022-10-04T19:00:39;13.10;99.90
20839;DHT22;10580;51.092;6.828;2022-10-04T19:03:49;13.00;99.90
20839;DHT22;10580;51.092;6.828;2022-10-04T19:06:27;13.00;99.90
20839;DHT22;10580;51.092;6.828;2022-10-04T19:09:25;13.00;99.90
20839;DHT22;10580;51.092;6.828;2022-10-04T19:12:04;13.00;99.90
20839;DHT22;10580;51.092;6.828;2022-10-04T19:17:38;13.10;99.90
20839;DHT22;10580;51.092;6.828;2022-10-04T19:20:17;13.10;99.90
20839;DHT22;10580;51.092;6.828;2022-10-04T19:23:18;13.10;99.90
20839;DHT22;10580;51.092;6.828;2022-10-04T19:28:29;13.10;99.90
20839;DHT22;10580;51.092;6.828;2022-10-04T19:34:12;13.00;99.90
20839;DHT22;10580;51.092;6.828;2022-10-04T19:37:00;12.90;99.90
20839;DHT22;10580;51.092;6.828;2022-10-04T19:48:01;12.80;99.90
20839;DHT22;10580;51.092;6.828;2022-10-04T19:50:43;12.80;99.90
20839;DHT22;10580;51.092;6.828;2022-10-04T19:53:18;12.80;99.90
20839;DHT22;10580;51.092;6.828;2022-10-04T19:58:43;12.80;99.90
20839;DHT22;10580;51.092;6.828;2022-10-04T20:01:20;12.70;99.90
20839;DHT22;10580;51.092;6.828;2022-10-04T20:03:48;12.80;99.90
20839;DHT22;10580;51.092;6.828;2022-10-04T20:06:35;12.70;99.90
20839;DHT22;10580;51.092;6.828;2022-10-04T20:11:51;12.60;99.90
20839;DHT22;10580;51.092;6.828;2022-10-04T20:19:35;12.50;99.90
20839;DHT22;10580;51.092;6.828;2022-10-04T20:27:02;12.40;99.90
20839;DHT22;10580;51.092;6.828;2022-10-04T20:32:09;12.30;99.90
20839;DHT22;10580;51.092;6.828;2022-10-04T20:37:05;12.20;99.90
20839;DHT22;10580;51.092;6.828;2022-10-04T20:44:52;12.00;99.90
20839;DHT22;10580;51.092;6.828;2022-10-04T20:49:53;11.90;99.90
20839;DHT22;10580;51.092;6.828;2022-10-04T20:52:27;11.90;99.90
20839;DHT22;10580;51.092;6.828;2022-10-04T20:54:53;11.90;99.90
20839;DHT22;10580;51.092;6.828;2022-10-04T20:57:21;11.80;99.90
20839;DHT22;10580;51.092;6.828;2022-10-04T20:59:52;11.80;99.90
20839;DHT22;10580;51.092;6.828;2022-10-04T21:02:23;11.80;99.90
20839;DHT22;10580;51.092;6.828;2022-10-04T21:04:51;11.80;99.90
20839;DHT22;10580;51.092;6.828;2022-10-04T21:07:19;11.70;99.90
20839;DHT22;10580;51.092;6.828;2022-10-04T21:09:45;11.70;99.90
20839;DHT22;10580;51.092;6.828;2022-10-04T21:12:30;11.70;99.90
20839;DHT22;10580;51.092;6.828;2022-10-04T21:17:41;11.60;99.90
20839;DHT22;10580;51.092;6.828;2022-10-04T21:28:42;11.60;99.90
20839;DHT22;10580;51.092;6.828;2022-10-04T21:31:08;11.60;99.90
20839;DHT22;10580;51.092;6.828;2022-10-04T21:33:34;11.70;99.90
20839;DHT22;10580;51.092;6.828;2022-10-04T21:36:00;11.80;99.90
20839;DHT22;10580;51.092;6.828;2022-10-04T21:38:26;11.80;99.90
20839;DHT22;10580;51.092;6.828;2022-10-04T21:43:22;11.80;99.90
20839;DHT22;10580;51.092;6.828;2022-10-04T21:45:48;11.80;99.90
20839;DHT22;10580;51.092;6.828;2022-10-04T21:48:14;11.80;99.90
20839;DHT22;10580;51.092;6.828;2022-10-04T21:50:39;11.90;99.90
20839;DHT22;10580;51.092;6.828;2022-10-04T21:53:05;11.90;99.90
20839;DHT22;10580;51.092;6.828;2022-10-04T21:55:31;12.00;99.90
20839;DHT22;10580;51.092;6.828;2022-10-04T21:57:56;12.00;99.90
20839;DHT22;10580;51.092;6.828;2022-10-04T22:00:22;11.90;99.90
20839;DHT22;10580;51.092;6.828;2022-10-04T22:02:48;11.90;99.90
20839;DHT22;10580;51.092;6.828;2022-10-04T22:05:14;11.90;99.90
20839;DHT22;10580;51.092;6.828;2022-10-04T22:07:40;12.00;99.90
20839;DHT22;10580;51.092;6.828;2022-10-04T22:10:06;12.00;99.90
20839;DHT22;10580;51.092;6.828;2022-10-04T22:12:31;12.00;99.90
20839;DHT22;10580;51.092;6.828;2022-10-04T22:14:57;12.10;99.90
20839;DHT22;10580;51.092;6.828;2022-10-04T22:17:22;12.10;99.90
20839;DHT22;10580;51.092;6.828;2022-10-04T22:19:48;12.10;99.90
20839;DHT22;10580;51.092;6.828;2022-10-04T22:22:18;12.10;99.90
20839;DHT22;10580;51.092;6.828;2022-10-04T22:24:43;12.10;99.90
20839;DHT22;10580;51.092;6.828;2022-10-04T22:27:13;12.20;99.90
20839;DHT22;10580;51.092;6.828;2022-10-04T22:29:39;12.20;99.90
20839;DHT22;10580;51.092;6.828;2022-10-04T22:32:17;12.20;99.90
20839;DHT22;10580;51.092;6.828;2022-10-04T22:34:44;12.20;99.90
20839;DHT22;10580;51.092;6.828;2022-10-04T22:37:10;12.20;99.90
20839;DHT22;10580;51.092;6.828;2022-10-04T22:39:36;12.20;99.90
20839;DHT22;10580;51.092;6.828;2022-10-04T22:42:02;12.20;99.90
20839;DHT22;10580;51.092;6.828;2022-10-04T22:46:58;12.30;99.90
20839;DHT22;10580;51.092;6.828;2022-10-04T22:49:30;12.20;99.90
20839;DHT22;10580;51.092;6.828;2022-10-04T22:51:58;12.30;99.90
20839;DHT22;10580;51.092;6.828;2022-10-04T22:54:30;12.30;99.90
20839;DHT22;10580;51.092;6.828;2022-10-04T22:56:56;12.30;99.90
20839;DHT22;10580;51.092;6.828;2022-10-04T22:59:31;12.30;99.90
20839;DHT22;10580;51.092;6.828;2022-10-04T23:01:58;12.30;99.90
20839;DHT22;10580;51.092;6.828;2022-10-04T23:04:24;12.20;99.90
20839;DHT22;10580;51.092;6.828;2022-10-04T23:06:51;12.20;99.90
20839;DHT22;10580;51.092;6.828;2022-10-04T23:09:18;12.30;99.90
20839;DHT22;10580;51.092;6.828;2022-10-04T23:11:44;12.30;99.90
20839;DHT22;10580;51.092;6.828;2022-10-04T23:14:09;12.30;99.90
20839;DHT22;10580;51.092;6.828;2022-10-04T23:16:36;12.30;99.90
20839;DHT22;10580;51.092;6.828;2022-10-04T23:21:33;12.30;99.90
20839;DHT22;10580;51.092;6.828;2022-10-04T23:26:42;12.40;99.90
20839;DHT22;10580;51.092;6.828;2022-10-04T23:29:17;12.40;99.90
20839;DHT22;10580;51.092;6.828;2022-10-04T23:31:45;12.40;99.90
20839;DHT22;10580;51.092;6.828;2022-10-04T23:34:41;12.30;99.90
20839;DHT22;10580;51.092;6.828;2022-10-04T23:37:24;12.30;99.90
20839;DHT22;10580;51.092;6.828;2022-10-04T23:39:50;12.40;99.90
20839;DHT22;10580;51.092;6.828;2022-10-04T23:42:18;12.30;99.90
20839;DHT22;10580;51.092;6.828;2022-10-04T23:44:46;12.30;99.90
20839;DHT22;10580;51.092;6.828;2022-10-04T23:47:15;12.40;99.90
20839;DHT22;10580;51.092;6.828;2022-10-04T23:49:42;12.30;99.90
20839;DHT22;10580;51.092;6.828;2022-10-04T23:52:18;12.30;99.90
20839;DHT22;10580;51.092;6.828;2022-10-04T23:54:44;12.30;99.90
20839;DHT22;10580;51.092;6.828;2022-10-04T23:57:15;12.30;99.90
20839;DHT22;10580;51.092;6.828;2022-10-04T23:59:42;12.30;99.90
